sensor_id;sensor_type;location;lat;lon;timestamp;pressure;altitude;pressure_sealevel;temperature;humidity
706;BME280;21234;48.690;9.016;2022-09-27T00:01:51;94429.44;;;9.33;100.00
706;BME280;21234;48.690;9.016;2022-09-27T00:04:17;94425.66;;;9.29;100.00
706;BME280;21234;48.690;9.016;2022-09-27T00:06:44;94420.19;;;9.34;100.00
706;BME280;21234;48.690;9.016;2022-09-27T00:09:11;94422.34;;;9.37;100.00
706;BME280;21234;48.690;9.016;2022-09-27T00:11:39;94417.25;;;9.31;100.00
706;BME280;21234;48.690;9.016;2022-09-27T00:14:07;94416.97;;;9.32;100.00
706;BME280;21234;48.690;9.016;2022-09-27T00:16:37;94421.56;;;9.32;100.00
706;BME280;21234;48.690;9.016;2022-09-27T00:19:08;94416.06;;;9.13;100.00
706;BME280;21234;48.690;9.016;2022-09-27T00:21:36;94420.06;;;9.21;100.00
706;BME280;21234;48.690;9.016;2022-09-27T00:24:03;94410.59;;;9.18;100.00
706;BME280;21234;48.690;9.016;2022-09-27T00:26:30;94406.75;;;9.24;100.00
706;BME280;21234;48.690;9.016;2022-09-27T00:28:57;94400.16;;;9.30;100.00
706;BME280;21234;48.690;9.016;2022-09-27T00:31:25;94405.59;;;9.30;100.00
706;BME280;21234;48.690;9.016;2022-09-27T00:33:55;94403.41;;;9.32;100.00
706;BME280;21234;48.690;9.016;2022-09-27T00:36:24;94400.41;;;9.34;100.00
706;BME280;21234;48.690;9.016;2022-09-27T00:38:51;94395.47;;;9.41;100.00
706;BME280;21234;48.690;9.016;2022-09-27T00:41:20;94397.97;;;9.32;100.00
706;BME280;21234;48.690;9.016;2022-09-27T00:43:49;94389.03;;;9.32;100.00
706;BME280;21234;48.690;9.016;2022-09-27T00:46:22;94378.72;;;9.34;100.00
706;BME280;21234;48.690;9.016;2022-09-27T00:49:00;94377.38;;;9.31;100.00
706;BME280;21234;48.690;9.016;2022-09-27T00:51:32;94386.63;;;9.30;100.00
706;BME280;21234;48.690;9.016;2022-09-27T00:54:00;94379.84;;;9.28;100.00
706;BME280;21234;48.690;9.016;2022-09-27T00:56:29;94383.63;;;9.32;100.00
706;BME280;21234;48.690;9.016;2022-09-27T00:59:01;94385.47;;;9.36;100.00
706;BME280;21234;48.690;9.016;2022-09-27T01:01:29;94375.19;;;9.33;100.00
706;BME280;21234;48.690;9.016;2022-09-27T01:03:59;94381.66;;;9.37;100.00
706;BME280;21234;48.690;9.016;2022-09-27T01:06:27;94380.28;;;9.40;100.00
706;BME280;21234;48.690;9.016;2022-09-27T01:08:55;94383.00;;;9.40;100.00
706;BME280;21234;48.690;9.016;2022-09-27T01:11:35;94385.41;;;9.41;100.00
706;BME280;21234;48.690;9.016;2022-09-27T01:14:14;94383.00;;;9.40;100.00
706;BME280;21234;48.690;9.016;2022-09-27T01:16:48;94373.88;;;9.31;100.00
706;BME280;21234;48.690;9.016;2022-09-27T01:19:42;94382.81;;;9.31;100.00
706;BME280;21234;48.690;9.016;2022-09-27T01:22:14;94380.34;;;9.35;100.00
706;BME280;21234;48.690;9.016;2022-09-27T01:24:55;94376.38;;;9.46;100.00
706;BME280;21234;48.690;9.016;2022-09-27T01:27:48;94390.19;;;9.50;100.00
706;BME280;21234;48.690;9.016;2022-09-27T01:30:26;94390.94;;;9.55;100.00
706;BME280;21234;48.690;9.016;2022-09-27T01:33:05;94373.56;;;9.56;100.00
706;BME280;21234;48.690;9.016;2022-09-27T01:35:37;94377.16;;;9.52;100.00
706;BME280;21234;48.690;9.016;2022-09-27T01:38:12;94376.22;;;9.61;100.00
706;BME280;21234;48.690;9.016;2022-09-27T01:40:51;94375.41;;;9.61;100.00
706;BME280;21234;48.690;9.016;2022-09-27T01:43:22;94372.41;;;9.62;100.00
706;BME280;21234;48.690;9.016;2022-09-27T01:45:54;94375.94;;;9.63;100.00
706;BME280;21234;48.690;9.016;2022-09-27T01:48:23;94363.41;;;9.67;100.00
706;BME280;21234;48.690;9.016;2022-09-27T01:50:53;94369.66;;;9.67;100.00
706;BME280;21234;48.690;9.016;2022-09-27T01:53:24;94365.84;;;9.68;100.00
706;BME280;21234;48.690;9.016;2022-09-27T01:55:55;94370.69;;;9.71;100.00
706;BME280;21234;48.690;9.016;2022-09-27T01:58:28;94371.09;;;9.78;100.00
706;BME280;21234;48.690;9.016;2022-09-27T02:00:59;94375.31;;;9.71;100.00
706;BME280;21234;48.690;9.016;2022-09-27T02:03:29;94380.44;;;9.72;100.00
706;BME280;21234;48.690;9.016;2022-09-27T02:06:00;94392.16;;;9.68;100.00
706;BME280;21234;48.690;9.016;2022-09-27T02:08:33;94399.19;;;9.69;100.00
706;BME280;21234;48.690;9.016;2022-09-27T02:11:05;94407.09;;;9.65;100.00
706;BME280;21234;48.690;9.016;2022-09-27T02:13:37;94406.63;;;9.58;100.00
706;BME280;21234;48.690;9.016;2022-09-27T02:16:16;94418.31;;;9.59;100.00
706;BME280;21234;48.690;9.016;2022-09-27T02:18:53;94412.34;;;9.57;100.00
706;BME280;21234;48.690;9.016;2022-09-27T02:21:24;94415.81;;;9.62;100.00
706;BME280;21234;48.690;9.016;2022-09-27T02:23:57;94418.97;;;9.46;100.00
706;BME280;21234;48.690;9.016;2022-09-27T02:26:30;94426.31;;;9.45;100.00
706;BME280;21234;48.690;9.016;2022-09-27T02:29:04;94427.81;;;9.32;100.00
706;BME280;21234;48.690;9.016;2022-09-27T02:31:34;94418.16;;;9.21;100.00
706;BME280;21234;48.690;9.016;2022-09-27T02:34:03;94418.19;;;9.16;100.00
706;BME280;21234;48.690;9.016;2022-09-27T02:36:32;94428.00;;;9.12;100.00
706;BME280;21234;48.690;9.016;2022-09-27T02:38:59;94419.69;;;9.03;100.00
706;BME280;21234;48.690;9.016;2022-09-27T02:41:26;94433.81;;;9.00;100.00
706;BME280;21234;48.690;9.016;2022-09-27T02:43:55;94434.09;;;8.99;100.00
706;BME280;21234;48.690;9.016;2022-09-27T02:46:46;94440.66;;;8.93;98.90
706;BME280;21234;48.690;9.016;2022-09-27T02:49:23;94441.22;;;8.90;97.08
706;BME280;21234;48.690;9.016;2022-09-27T02:52:00;94443.69;;;8.86;98.48
706;BME280;21234;48.690;9.016;2022-09-27T02:54:35;94453.47;;;8.82;98.92
706;BME280;21234;48.690;9.016;2022-09-27T02:57:14;94455.75;;;8.70;96.74
706;BME280;21234;48.690;9.016;2022-09-27T02:59:53;94447.56;;;8.75;98.51
706;BME280;21234;48.690;9.016;2022-09-27T03:02:31;94453.00;;;8.75;98.98
706;BME280;21234;48.690;9.016;2022-09-27T03:05:01;94450.59;;;8.68;98.09
706;BME280;21234;48.690;9.016;2022-09-27T03:07:29;94446.25;;;8.72;99.91
706;BME280;21234;48.690;9.016;2022-09-27T03:09:56;94449.75;;;8.73;100.00
706;BME280;21234;48.690;9.016;2022-09-27T03:12:23;94453.81;;;8.75;99.54
706;BME280;21234;48.690;9.016;2022-09-27T03:14:52;94451.03;;;8.81;100.00
706;BME280;21234;48.690;9.016;2022-09-27T03:17:20;94446.78;;;8.74;99.57
706;BME280;21234;48.690;9.016;2022-09-27T03:19:48;94464.34;;;8.77;100.00
706;BME280;21234;48.690;9.016;2022-09-27T03:22:15;94467.06;;;8.77;100.00
706;BME280;21234;48.690;9.016;2022-09-27T03:24:42;94475.69;;;8.79;100.00
706;BME280;21234;48.690;9.016;2022-09-27T03:27:10;94474.56;;;8.85;100.00
706;BME280;21234;48.690;9.016;2022-09-27T03:29:37;94476.97;;;8.92;100.00
706;BME280;21234;48.690;9.016;2022-09-27T03:32:04;94481.84;;;8.90;100.00
706;BME280;21234;48.690;9.016;2022-09-27T03:34:30;94475.91;;;8.88;100.00
706;BME280;21234;48.690;9.016;2022-09-27T03:36:59;94484.09;;;8.77;100.00
706;BME280;21234;48.690;9.016;2022-09-27T03:39:26;94476.22;;;8.81;100.00
706;BME280;21234;48.690;9.016;2022-09-27T03:41:53;94482.94;;;8.89;100.00
706;BME280;21234;48.690;9.016;2022-09-27T03:44:20;94485.66;;;8.89;100.00
706;BME280;21234;48.690;9.016;2022-09-27T03:46:46;94480.28;;;8.84;100.00
706;BME280;21234;48.690;9.016;2022-09-27T03:49:13;94472.94;;;8.84;100.00
706;BME280;21234;48.690;9.016;2022-09-27T03:51:40;94477.03;;;8.82;100.00
706;BME280;21234;48.690;9.016;2022-09-27T03:54:09;94476.22;;;8.81;100.00
706;BME280;21234;48.690;9.016;2022-09-27T03:56:35;94472.38;;;8.87;100.00
706;BME280;21234;48.690;9.016;2022-09-27T03:59:02;94464.78;;;8.89;100.00
706;BME280;21234;48.690;9.016;2022-09-27T04:01:29;94470.75;;;8.91;100.00
706;BME280;21234;48.690;9.016;2022-09-27T04:03:57;94468.84;;;8.92;100.00
706;BME280;21234;48.690;9.016;2022-09-27T04:06:24;94468.63;;;8.83;100.00
706;BME280;21234;48.690;9.016;2022-09-27T04:08:51;94474.59;;;8.80;100.00
706;BME280;21234;48.690;9.016;2022-09-27T04:11:19;94480.56;;;8.82;100.00
706;BME280;21234;48.690;9.016;2022-09-27T04:13:47;94481.28;;;8.93;100.00
706;BME280;21234;48.690;9.016;2022-09-27T04:16:14;94484.44;;;8.71;100.00
706;BME280;21234;48.690;9.016;2022-09-27T04:18:41;94481.97;;;8.35;100.00
706;BME280;21234;48.690;9.016;2022-09-27T04:21:08;94483.63;;;8.21;100.00
706;BME280;21234;48.690;9.016;2022-09-27T04:23:35;94482.53;;;8.22;100.00
706;BME280;21234;48.690;9.016;2022-09-27T04:26:02;94486.31;;;8.21;100.00
706;BME280;21234;48.690;9.016;2022-09-27T04:28:30;94486.94;;;8.62;100.00
706;BME280;21234;48.690;9.016;2022-09-27T04:30:57;94477.66;;;8.73;100.00
706;BME280;21234;48.690;9.016;2022-09-27T04:33:24;94481.13;;;8.79;100.00
706;BME280;21234;48.690;9.016;2022-09-27T04:35:51;94482.16;;;8.83;100.00
706;BME280;21234;48.690;9.016;2022-09-27T04:38:35;94481.09;;;8.84;100.00
706;BME280;21234;48.690;9.016;2022-09-27T04:41:03;94485.38;;;8.90;100.00
706;BME280;21234;48.690;9.016;2022-09-27T04:43:31;94490.06;;;8.80;100.00
706;BME280;21234;48.690;9.016;2022-09-27T04:45:58;94491.69;;;8.41;100.00
706;BME280;21234;48.690;9.016;2022-09-27T04:48:25;94495.25;;;8.22;100.00
706;BME280;21234;48.690;9.016;2022-09-27T04:50:56;94493.84;;;8.39;100.00
706;BME280;21234;48.690;9.016;2022-09-27T04:53:23;94488.00;;;8.66;100.00
706;BME280;21234;48.690;9.016;2022-09-27T04:55:51;94493.59;;;8.31;100.00
706;BME280;21234;48.690;9.016;2022-09-27T04:58:18;94501.47;;;8.22;100.00
706;BME280;21234;48.690;9.016;2022-09-27T05:00:47;94500.09;;;8.35;100.00
706;BME280;21234;48.690;9.016;2022-09-27T05:03:14;94505.69;;;8.49;100.00
706;BME280;21234;48.690;9.016;2022-09-27T05:05:41;94510.28;;;8.53;100.00
706;BME280;21234;48.690;9.016;2022-09-27T05:08:08;94515.16;;;8.51;100.00
706;BME280;21234;48.690;9.016;2022-09-27T05:10:35;94515.44;;;8.50;100.00
706;BME280;21234;48.690;9.016;2022-09-27T05:13:02;94525.75;;;8.48;100.00
706;BME280;21234;48.690;9.016;2022-09-27T05:15:28;94523.34;;;8.41;100.00
706;BME280;21234;48.690;9.016;2022-09-27T05:17:57;94532.31;;;8.36;100.00
706;BME280;21234;48.690;9.016;2022-09-27T05:20:24;94538.00;;;8.30;100.00
706;BME280;21234;48.690;9.016;2022-09-27T05:22:51;94545.31;;;8.29;100.00
706;BME280;21234;48.690;9.016;2022-09-27T05:25:18;94536.69;;;8.17;100.00
706;BME280;21234;48.690;9.016;2022-09-27T05:27:45;94541.53;;;8.25;100.00
706;BME280;21234;48.690;9.016;2022-09-27T05:30:13;94536.38;;;8.29;100.00
706;BME280;21234;48.690;9.016;2022-09-27T05:32:41;94549.16;;;8.13;100.00
706;BME280;21234;48.690;9.016;2022-09-27T05:35:11;94549.66;;;8.20;100.00
706;BME280;21234;48.690;9.016;2022-09-27T05:37:38;94558.63;;;8.16;100.00
706;BME280;21234;48.690;9.016;2022-09-27T05:40:06;94562.44;;;8.09;100.00
706;BME280;21234;48.690;9.016;2022-09-27T05:42:33;94566.50;;;8.07;100.00
706;BME280;21234;48.690;9.016;2022-09-27T05:45:00;94577.50;;;8.31;100.00
706;BME280;21234;48.690;9.016;2022-09-27T05:47:27;94570.78;;;8.23;100.00
706;BME280;21234;48.690;9.016;2022-09-27T05:49:54;94573.81;;;8.12;100.00
706;BME280;21234;48.690;9.016;2022-09-27T05:52:22;94582.75;;;8.12;100.00
706;BME280;21234;48.690;9.016;2022-09-27T05:54:49;94577.56;;;8.16;100.00
706;BME280;21234;48.690;9.016;2022-09-27T05:57:16;94588.13;;;8.17;100.00
706;BME280;21234;48.690;9.016;2022-09-27T05:59:43;94595.41;;;8.22;100.00
706;BME280;21234;48.690;9.016;2022-09-27T06:02:10;94597.31;;;8.21;100.00
706;BME280;21234;48.690;9.016;2022-09-27T06:04:37;94606.78;;;8.24;100.00
706;BME280;21234;48.690;9.016;2022-09-27T06:07:03;94605.69;;;8.25;100.00
706;BME280;21234;48.690;9.016;2022-09-27T06:09:31;94606.22;;;8.22;100.00
706;BME280;21234;48.690;9.016;2022-09-27T06:11:58;94600.78;;;8.32;100.00
706;BME280;21234;48.690;9.016;2022-09-27T06:14:25;94618.69;;;8.38;100.00
706;BME280;21234;48.690;9.016;2022-09-27T06:16:52;94617.06;;;8.37;100.00
706;BME280;21234;48.690;9.016;2022-09-27T06:19:19;94621.09;;;8.29;100.00
706;BME280;21234;48.690;9.016;2022-09-27T06:21:48;94618.41;;;8.29;100.00
706;BME280;21234;48.690;9.016;2022-09-27T06:24:15;94620.03;;;8.30;100.00
706;BME280;21234;48.690;9.016;2022-09-27T06:26:43;94626.81;;;8.33;100.00
706;BME280;21234;48.690;9.016;2022-09-27T06:29:10;94637.09;;;8.36;100.00
706;BME280;21234;48.690;9.016;2022-09-27T06:31:37;94636.28;;;8.25;98.31
706;BME280;21234;48.690;9.016;2022-09-27T06:34:04;94644.94;;;8.17;97.48
706;BME280;21234;48.690;9.016;2022-09-27T06:36:32;94642.78;;;8.14;98.73
706;BME280;21234;48.690;9.016;2022-09-27T06:38:59;94643.66;;;8.04;99.19
706;BME280;21234;48.690;9.016;2022-09-27T06:41:26;94651.22;;;8.07;99.78
706;BME280;21234;48.690;9.016;2022-09-27T06:43:54;94653.66;;;8.09;98.26
706;BME280;21234;48.690;9.016;2022-09-27T06:46:21;94646.88;;;8.06;99.16
706;BME280;21234;48.690;9.016;2022-09-27T06:48:48;94650.69;;;7.95;99.77
706;BME280;21234;48.690;9.016;2022-09-27T06:51:15;94657.72;;;7.96;100.00
706;BME280;21234;48.690;9.016;2022-09-27T06:53:42;94652.84;;;7.93;100.00
706;BME280;21234;48.690;9.016;2022-09-27T06:56:08;94655.78;;;8.22;100.00
706;BME280;21234;48.690;9.016;2022-09-27T06:58:35;94659.50;;;8.57;97.69
706;BME280;21234;48.690;9.016;2022-09-27T07:01:20;94660.88;;;8.49;95.06
706;BME280;21234;48.690;9.016;2022-09-27T07:03:49;94662.28;;;8.41;94.07
706;BME280;21234;48.690;9.016;2022-09-27T07:06:17;94660.31;;;8.57;91.87
706;BME280;21234;48.690;9.016;2022-09-27T07:08:49;94671.84;;;8.78;92.41
706;BME280;21234;48.690;9.016;2022-09-27T07:11:16;94669.69;;;9.34;92.99
706;BME280;21234;48.690;9.016;2022-09-27T07:13:44;94673.09;;;9.84;89.69
706;BME280;21234;48.690;9.016;2022-09-27T07:16:11;94674.47;;;9.48;88.57
706;BME280;21234;48.690;9.016;2022-09-27T07:18:41;94688.22;;;9.17;91.33
706;BME280;21234;48.690;9.016;2022-09-27T07:21:08;94686.47;;;8.82;92.59
706;BME280;21234;48.690;9.016;2022-09-27T07:23:37;94684.13;;;8.65;94.16
706;BME280;21234;48.690;9.016;2022-09-27T07:26:04;94687.91;;;8.64;95.65
706;BME280;21234;48.690;9.016;2022-09-27T07:28:32;94697.69;;;8.60;95.67
706;BME280;21234;48.690;9.016;2022-09-27T07:30:59;94708.00;;;8.48;92.25
706;BME280;21234;48.690;9.016;2022-09-27T07:33:26;94702.84;;;8.47;93.67
706;BME280;21234;48.690;9.016;2022-09-27T07:35:54;94698.28;;;8.42;93.29
706;BME280;21234;48.690;9.016;2022-09-27T07:38:22;94704.25;;;8.44;94.37
706;BME280;21234;48.690;9.016;2022-09-27T07:40:48;94708.25;;;8.47;94.20
706;BME280;21234;48.690;9.016;2022-09-27T07:43:15;94707.22;;;8.43;91.95
706;BME280;21234;48.690;9.016;2022-09-27T07:45:44;94712.31;;;8.49;94.32
706;BME280;21234;48.690;9.016;2022-09-27T07:48:12;94709.66;;;8.44;93.21
706;BME280;21234;48.690;9.016;2022-09-27T07:50:40;94718.53;;;8.55;94.84
706;BME280;21234;48.690;9.016;2022-09-27T07:53:08;94713.94;;;8.60;95.94
706;BME280;21234;48.690;9.016;2022-09-27T07:55:37;94717.69;;;8.69;95.81
706;BME280;21234;48.690;9.016;2022-09-27T07:58:06;94727.44;;;8.75;92.35
706;BME280;21234;48.690;9.016;2022-09-27T08:00:33;94725.31;;;9.71;89.39
706;BME280;21234;48.690;9.016;2022-09-27T08:03:04;94727.69;;;9.38;85.22
706;BME280;21234;48.690;9.016;2022-09-27T08:05:33;94734.84;;;9.19;88.51
706;BME280;21234;48.690;9.016;2022-09-27T08:08:01;94736.19;;;9.17;86.08
706;BME280;21234;48.690;9.016;2022-09-27T08:10:30;94746.56;;;9.59;87.86
706;BME280;21234;48.690;9.016;2022-09-27T08:12:56;94742.06;;;10.17;83.05
706;BME280;21234;48.690;9.016;2022-09-27T08:15:24;94744.84;;;10.41;81.52
706;BME280;21234;48.690;9.016;2022-09-27T08:17:52;94740.81;;;10.38;81.41
706;BME280;21234;48.690;9.016;2022-09-27T08:20:19;94739.31;;;10.22;83.06
706;BME280;21234;48.690;9.016;2022-09-27T08:22:45;94743.56;;;9.99;82.59
706;BME280;21234;48.690;9.016;2022-09-27T08:25:12;94747.63;;;9.63;83.47
706;BME280;21234;48.690;9.016;2022-09-27T08:27:41;94752.19;;;9.13;81.85
706;BME280;21234;48.690;9.016;2022-09-27T08:30:08;94763.09;;;9.03;87.16
706;BME280;21234;48.690;9.016;2022-09-27T08:32:35;94766.13;;;8.91;88.15
706;BME280;21234;48.690;9.016;2022-09-27T08:35:03;94759.88;;;8.91;90.13
706;BME280;21234;48.690;9.016;2022-09-27T08:37:31;94771.56;;;8.81;91.48
706;BME280;21234;48.690;9.016;2022-09-27T08:39:58;94769.44;;;8.73;92.78
706;BME280;21234;48.690;9.016;2022-09-27T08:42:32;94772.97;;;8.68;95.51
706;BME280;21234;48.690;9.016;2022-09-27T08:45:10;94773.78;;;8.64;94.01
706;BME280;21234;48.690;9.016;2022-09-27T08:47:42;94774.34;;;8.61;95.14
706;BME280;21234;48.690;9.016;2022-09-27T08:50:20;94772.25;;;9.17;93.80
706;BME280;21234;48.690;9.016;2022-09-27T08:52:54;94762.91;;;9.88;89.91
706;BME280;21234;48.690;9.016;2022-09-27T08:55:26;94783.31;;;9.80;87.47
706;BME280;21234;48.690;9.016;2022-09-27T08:57:57;94775.78;;;9.72;84.57
706;BME280;21234;48.690;9.016;2022-09-27T09:00:27;94775.78;;;9.72;84.12
706;BME280;21234;48.690;9.016;2022-09-27T09:02:54;94773.53;;;9.84;83.73
706;BME280;21234;48.690;9.016;2022-09-27T09:05:27;94769.25;;;10.12;81.20
706;BME280;21234;48.690;9.016;2022-09-27T09:08:13;94778.72;;;10.15;81.79
706;BME280;21234;48.690;9.016;2022-09-27T09:10:50;94768.06;;;10.57;79.90
706;BME280;21234;48.690;9.016;2022-09-27T09:16:44;94765.72;;;10.74;78.31
706;BME280;21234;48.690;9.016;2022-09-27T09:19:29;94765.34;;;11.10;81.58
706;BME280;21234;48.690;9.016;2022-09-27T09:22:08;94770.56;;;11.49;75.14
706;BME280;21234;48.690;9.016;2022-09-27T09:24:50;94755.69;;;11.41;79.24
706;BME280;21234;48.690;9.016;2022-09-27T09:27:29;94767.63;;;11.88;74.52
706;BME280;21234;48.690;9.016;2022-09-27T09:33:13;94772.22;;;11.69;68.65
706;BME280;21234;48.690;9.016;2022-09-27T09:35:46;94773.28;;;11.49;70.58
706;BME280;21234;48.690;9.016;2022-09-27T09:38:17;94767.03;;;11.91;72.21
706;BME280;21234;48.690;9.016;2022-09-27T09:40:51;94762.31;;;11.97;74.64
706;BME280;21234;48.690;9.016;2022-09-27T09:43:27;94773.28;;;11.92;71.68
706;BME280;21234;48.690;9.016;2022-09-27T09:45:59;94777.50;;;11.60;69.41
706;BME280;21234;48.690;9.016;2022-09-27T09:48:33;94761.00;;;11.70;73.10
706;BME280;21234;48.690;9.016;2022-09-27T09:51:05;94763.91;;;11.60;69.56
706;BME280;21234;48.690;9.016;2022-09-27T09:53:39;94766.84;;;11.64;72.00
706;BME280;21234;48.690;9.016;2022-09-27T09:56:13;94754.94;;;12.16;70.10
706;BME280;21234;48.690;9.016;2022-09-27T09:58:45;94750.25;;;12.35;69.11
706;BME280;21234;48.690;9.016;2022-09-27T10:01:19;94740.63;;;12.57;66.34
706;BME280;21234;48.690;9.016;2022-09-27T10:03:48;94749.41;;;12.67;66.40
706;BME280;21234;48.690;9.016;2022-09-27T10:06:16;94746.13;;;12.38;68.08
706;BME280;21234;48.690;9.016;2022-09-27T10:08:43;94739.84;;;12.24;69.55
706;BME280;21234;48.690;9.016;2022-09-27T10:11:18;94740.13;;;12.03;69.55
706;BME280;21234;48.690;9.016;2022-09-27T10:13:46;94747.34;;;11.75;72.13
706;BME280;21234;48.690;9.016;2022-09-27T10:16:16;94748.09;;;11.62;73.30
706;BME280;21234;48.690;9.016;2022-09-27T10:18:45;94743.94;;;11.46;72.72
706;BME280;21234;48.690;9.016;2022-09-27T10:21:17;94743.97;;;11.22;71.81
706;BME280;21234;48.690;9.016;2022-09-27T10:24:05;94747.16;;;11.05;71.71
706;BME280;21234;48.690;9.016;2022-09-27T10:26:33;94750.06;;;10.90;74.14
706;BME280;21234;48.690;9.016;2022-09-27T10:29:19;94746.72;;;10.98;74.16
706;BME280;21234;48.690;9.016;2022-09-27T10:31:48;94741.25;;;11.22;75.77
706;BME280;21234;48.690;9.016;2022-09-27T10:34:23;94726.50;;;11.28;73.70
706;BME280;21234;48.690;9.016;2022-09-27T10:37:04;94733.56;;;11.29;73.25
706;BME280;21234;48.690;9.016;2022-09-27T10:39:31;94721.94;;;11.24;73.18
706;BME280;21234;48.690;9.016;2022-09-27T10:41:58;94731.19;;;11.23;74.55
706;BME280;21234;48.690;9.016;2022-09-27T10:44:26;94722.56;;;11.16;74.83
706;BME280;21234;48.690;9.016;2022-09-27T10:46:55;94722.91;;;11.33;74.73
706;BME280;21234;48.690;9.016;2022-09-27T10:49:26;94721.75;;;11.15;72.15
706;BME280;21234;48.690;9.016;2022-09-27T10:51:56;94722.47;;;11.02;70.52
706;BME280;21234;48.690;9.016;2022-09-27T10:54:27;94717.09;;;10.97;73.47
706;BME280;21234;48.690;9.016;2022-09-27T10:57:00;94718.53;;;11.13;73.18
706;BME280;21234;48.690;9.016;2022-09-27T10:59:30;94717.13;;;11.16;71.06
706;BME280;21234;48.690;9.016;2022-09-27T11:01:59;94717.81;;;11.26;71.85
706;BME280;21234;48.690;9.016;2022-09-27T11:04:29;94714.59;;;11.24;68.92
706;BME280;21234;48.690;9.016;2022-09-27T11:07:15;94702.03;;;11.66;69.70
706;BME280;21234;48.690;9.016;2022-09-27T11:09:49;94697.78;;;12.30;69.84
706;BME280;21234;48.690;9.016;2022-09-27T11:12:17;94701.03;;;12.45;67.19
706;BME280;21234;48.690;9.016;2022-09-27T11:14:51;94693.78;;;12.68;67.97
706;BME280;21234;48.690;9.016;2022-09-27T11:17:25;94704.69;;;12.68;67.20
706;BME280;21234;48.690;9.016;2022-09-27T11:20:06;94691.69;;;12.65;70.51
706;BME280;21234;48.690;9.016;2022-09-27T11:23:01;94700.06;;;12.23;69.51
706;BME280;21234;48.690;9.016;2022-09-27T11:25:37;94708.38;;;11.99;66.48
706;BME280;21234;48.690;9.016;2022-09-27T11:28:14;94701.00;;;11.62;69.37
706;BME280;21234;48.690;9.016;2022-09-27T11:30:50;94704.09;;;11.36;71.87
706;BME280;21234;48.690;9.016;2022-09-27T11:33:41;94702.72;;;11.15;77.95
706;BME280;21234;48.690;9.016;2022-09-27T11:36:20;94707.06;;;11.16;80.71
706;BME280;21234;48.690;9.016;2022-09-27T11:38:57;94703.25;;;11.17;79.35
706;BME280;21234;48.690;9.016;2022-09-27T11:41:41;94708.50;;;11.32;80.30
706;BME280;21234;48.690;9.016;2022-09-27T11:47:19;94700.41;;;11.46;79.86
706;BME280;21234;48.690;9.016;2022-09-27T11:52:57;94699.06;;;11.25;81.74
706;BME280;21234;48.690;9.016;2022-09-27T11:55:37;94698.06;;;10.97;83.62
706;BME280;21234;48.690;9.016;2022-09-27T11:58:15;94703.84;;;10.90;83.54
706;BME280;21234;48.690;9.016;2022-09-27T12:00:56;94706.44;;;10.76;83.63
706;BME280;21234;48.690;9.016;2022-09-27T12:03:55;94703.97;;;10.80;86.53
706;BME280;21234;48.690;9.016;2022-09-27T12:06:34;94701.28;;;10.51;85.58
706;BME280;21234;48.690;9.016;2022-09-27T12:09:05;94704.91;;;10.41;86.25
706;BME280;21234;48.690;9.016;2022-09-27T12:11:37;94700.22;;;10.18;86.22
706;BME280;21234;48.690;9.016;2022-09-27T12:14:15;94711.41;;;10.11;88.05
706;BME280;21234;48.690;9.016;2022-09-27T12:16:44;94700.69;;;9.96;89.99
706;BME280;21234;48.690;9.016;2022-09-27T12:19:17;94711.00;;;9.99;92.96
706;BME280;21234;48.690;9.016;2022-09-27T12:21:45;94701.53;;;9.92;92.87
706;BME280;21234;48.690;9.016;2022-09-27T12:24:18;94701.28;;;9.88;93.78
706;BME280;21234;48.690;9.016;2022-09-27T12:26:48;94700.78;;;9.86;92.14
706;BME280;21234;48.690;9.016;2022-09-27T12:29:21;94694.81;;;9.84;93.16
706;BME280;21234;48.690;9.016;2022-09-27T12:31:56;94692.63;;;9.86;92.83
706;BME280;21234;48.690;9.016;2022-09-27T12:34:29;94691.00;;;9.85;92.66
706;BME280;21234;48.690;9.016;2022-09-27T12:37:02;94688.00;;;9.87;93.76
706;BME280;21234;48.690;9.016;2022-09-27T12:39:39;94682.53;;;9.92;94.11
706;BME280;21234;48.690;9.016;2022-09-27T12:42:13;94683.84;;;9.99;94.64
706;BME280;21234;48.690;9.016;2022-09-27T12:44:45;94681.94;;;10.00;95.32
706;BME280;21234;48.690;9.016;2022-09-27T12:47:30;94679.81;;;9.92;92.28
706;BME280;21234;48.690;9.016;2022-09-27T12:50:04;94682.25;;;9.93;90.85
706;BME280;21234;48.690;9.016;2022-09-27T12:52:39;94666.91;;;10.07;92.46
706;BME280;21234;48.690;9.016;2022-09-27T12:55:28;94676.13;;;10.40;94.25
706;BME280;21234;48.690;9.016;2022-09-27T12:58:26;94669.22;;;10.53;88.48
706;BME280;21234;48.690;9.016;2022-09-27T13:01:00;94663.78;;;10.53;88.32
706;BME280;21234;48.690;9.016;2022-09-27T13:03:48;94664.41;;;10.45;89.70
706;BME280;21234;48.690;9.016;2022-09-27T13:06:34;94670.69;;;10.40;90.33
706;BME280;21234;48.690;9.016;2022-09-27T13:09:23;94659.38;;;10.33;91.63
706;BME280;21234;48.690;9.016;2022-09-27T13:11:59;94666.28;;;10.21;90.02
706;BME280;21234;48.690;9.016;2022-09-27T13:14:29;94662.19;;;10.23;92.20
706;BME280;21234;48.690;9.016;2022-09-27T13:16:59;94660.00;;;10.25;91.31
706;BME280;21234;48.690;9.016;2022-09-27T13:19:41;94660.00;;;10.25;91.30
706;BME280;21234;48.690;9.016;2022-09-27T13:22:35;94657.00;;;10.27;90.95
706;BME280;21234;48.690;9.016;2022-09-27T13:25:14;94655.34;;;10.31;89.50
706;BME280;21234;48.690;9.016;2022-09-27T13:27:55;94658.56;;;10.33;91.12
706;BME280;21234;48.690;9.016;2022-09-27T13:30:46;94659.84;;;10.88;91.94
706;BME280;21234;48.690;9.016;2022-09-27T13:33:40;94655.16;;;10.94;88.43
706;BME280;21234;48.690;9.016;2022-09-27T13:36:25;94659.25;;;10.91;87.75
706;BME280;21234;48.690;9.016;2022-09-27T13:39:03;94643.94;;;10.76;85.75
706;BME280;21234;48.690;9.016;2022-09-27T13:41:50;94656.47;;;10.72;86.77
706;BME280;21234;48.690;9.016;2022-09-27T13:44:26;94657.66;;;10.66;83.92
706;BME280;21234;48.690;9.016;2022-09-27T13:47:01;94653.50;;;10.50;83.01
706;BME280;21234;48.690;9.016;2022-09-27T13:49:36;94640.94;;;10.54;81.03
706;BME280;21234;48.690;9.016;2022-09-27T13:52:16;94649.84;;;10.60;81.53
706;BME280;21234;48.690;9.016;2022-09-27T13:54:50;94640.84;;;10.64;83.85
706;BME280;21234;48.690;9.016;2022-09-27T13:57:40;94638.19;;;10.59;82.03
706;BME280;21234;48.690;9.016;2022-09-27T14:00:11;94638.28;;;10.49;82.21
706;BME280;21234;48.690;9.016;2022-09-27T14:02:44;94642.91;;;10.49;78.25